sensor_id;sensor_type;location;lat;lon;timestamp;P1;durP1;ratioP1;P2;durP2;ratioP2
9270;SDS011;4673;53.458;9.940;2023-04-29T00:01:06;12.80;;;12.70;;
9270;SDS011;4673;53.458;9.940;2023-04-29T00:03:32;13.20;;;13.10;;
9270;SDS011;4673;53.458;9.940;2023-04-29T00:05:58;11.90;;;11.80;;
9270;SDS011;4673;53.458;9.940;2023-04-29T00:08:24;13.33;;;13.23;;
9270;SDS011;4673;53.458;9.940;2023-04-29T00:10:50;12.93;;;12.83;;
9270;SDS011;4673;53.458;9.940;2023-04-29T00:13:16;12.83;;;12.83;;
9270;SDS011;4673;53.458;9.940;2023-04-29T00:15:42;12.73;;;12.67;;
9270;SDS011;4673;53.458;9.940;2023-04-29T00:18:08;13.20;;;13.10;;
9270;SDS011;4673;53.458;9.940;2023-04-29T00:20:34;12.90;;;12.80;;
9270;SDS011;4673;53.458;9.940;2023-04-29T00:23:04;13.30;;;13.20;;
9270;SDS011;4673;53.458;9.940;2023-04-29T00:25:30;14.20;;;14.10;;
9270;SDS011;4673;53.458;9.940;2023-04-29T00:27:56;13.83;;;13.73;;
9270;SDS011;4673;53.458;9.940;2023-04-29T00:30:25;13.20;;;13.10;;
9270;SDS011;4673;53.458;9.940;2023-04-29T00:32:52;13.67;;;13.63;;
9270;SDS011;4673;53.458;9.940;2023-04-29T00:35:19;13.13;;;13.03;;
9270;SDS011;4673;53.458;9.940;2023-04-29T00:37:45;14.40;;;14.30;;
9270;SDS011;4673;53.458;9.940;2023-04-29T00:40:11;13.47;;;13.37;;
9270;SDS011;4673;53.458;9.940;2023-04-29T00:42:39;13.70;;;13.60;;
9270;SDS011;4673;53.458;9.940;2023-04-29T00:45:05;15.73;;;15.63;;
9270;SDS011;4673;53.458;9.940;2023-04-29T00:47:31;14.30;;;14.20;;
9270;SDS011;4673;53.458;9.940;2023-04-29T00:49:57;15.93;;;15.83;;
9270;SDS011;4673;53.458;9.940;2023-04-29T00:52:23;14.83;;;14.73;;
9270;SDS011;4673;53.458;9.940;2023-04-29T00:54:49;13.67;;;13.57;;
9270;SDS011;4673;53.458;9.940;2023-04-29T00:57:17;14.57;;;14.47;;
9270;SDS011;4673;53.458;9.940;2023-04-29T00:59:43;15.27;;;15.17;;
9270;SDS011;4673;53.458;9.940;2023-04-29T01:02:10;14.40;;;14.30;;
9270;SDS011;4673;53.458;9.940;2023-04-29T01:04:36;14.80;;;14.70;;
9270;SDS011;4673;53.458;9.940;2023-04-29T01:07:15;15.23;;;15.13;;
9270;SDS011;4673;53.458;9.940;2023-04-29T01:12:19;14.97;;;14.87;;
9270;SDS011;4673;53.458;9.940;2023-04-29T01:15:01;15.33;;;15.23;;
9270;SDS011;4673;53.458;9.940;2023-04-29T01:17:33;15.40;;;15.30;;
9270;SDS011;4673;53.458;9.940;2023-04-29T01:20:03;15.33;;;15.23;;
9270;SDS011;4673;53.458;9.940;2023-04-29T01:22:32;16.33;;;16.23;;
9270;SDS011;4673;53.458;9.940;2023-04-29T01:24:58;16.17;;;16.07;;
9270;SDS011;4673;53.458;9.940;2023-04-29T01:30:00;15.57;;;15.47;;
9270;SDS011;4673;53.458;9.940;2023-04-29T01:32:51;16.07;;;15.97;;
9270;SDS011;4673;53.458;9.940;2023-04-29T01:38:16;15.27;;;15.17;;
9270;SDS011;4673;53.458;9.940;2023-04-29T01:41:26;15.57;;;15.47;;
9270;SDS011;4673;53.458;9.940;2023-04-29T01:43:42;15.70;;;15.60;;
9270;SDS011;4673;53.458;9.940;2023-04-29T01:46:15;15.93;;;15.83;;
9270;SDS011;4673;53.458;9.940;2023-04-29T01:48:45;17.53;;;17.43;;
9270;SDS011;4673;53.458;9.940;2023-04-29T01:51:10;15.47;;;15.37;;
9270;SDS011;4673;53.458;9.940;2023-04-29T01:53:37;15.17;;;15.07;;
9270;SDS011;4673;53.458;9.940;2023-04-29T01:56:05;15.30;;;15.20;;
9270;SDS011;4673;53.458;9.940;2023-04-29T01:58:31;14.57;;;14.47;;
9270;SDS011;4673;53.458;9.940;2023-04-29T02:00:57;11.13;;;11.13;;
9270;SDS011;4673;53.458;9.940;2023-04-29T02:05:55;16.03;;;15.93;;
9270;SDS011;4673;53.458;9.940;2023-04-29T02:08:21;14.23;;;14.13;;
9270;SDS011;4673;53.458;9.940;2023-04-29T02:10:53;14.87;;;14.77;;
9270;SDS011;4673;53.458;9.940;2023-04-29T02:13:20;14.93;;;14.83;;
9270;SDS011;4673;53.458;9.940;2023-04-29T02:15:46;13.63;;;13.63;;
9270;SDS011;4673;53.458;9.940;2023-04-29T02:18:12;14.40;;;14.30;;
9270;SDS011;4673;53.458;9.940;2023-04-29T02:20:37;13.67;;;13.57;;
9270;SDS011;4673;53.458;9.940;2023-04-29T02:23:03;14.10;;;14.00;;
9270;SDS011;4673;53.458;9.940;2023-04-29T02:25:29;13.50;;;13.40;;
9270;SDS011;4673;53.458;9.940;2023-04-29T02:27:54;13.70;;;13.70;;
9270;SDS011;4673;53.458;9.940;2023-04-29T02:30:20;14.33;;;14.23;;
9270;SDS011;4673;53.458;9.940;2023-04-29T02:32:46;14.87;;;14.77;;
9270;SDS011;4673;53.458;9.940;2023-04-29T02:35:11;14.30;;;14.20;;
9270;SDS011;4673;53.458;9.940;2023-04-29T02:37:37;13.63;;;13.53;;
9270;SDS011;4673;53.458;9.940;2023-04-29T02:40:03;13.47;;;13.37;;
9270;SDS011;4673;53.458;9.940;2023-04-29T02:42:30;14.27;;;14.17;;
9270;SDS011;4673;53.458;9.940;2023-04-29T02:44:55;15.03;;;14.93;;
9270;SDS011;4673;53.458;9.940;2023-04-29T02:47:21;14.47;;;14.37;;
9270;SDS011;4673;53.458;9.940;2023-04-29T02:49:47;14.13;;;14.03;;
9270;SDS011;4673;53.458;9.940;2023-04-29T02:52:13;15.33;;;15.23;;
9270;SDS011;4673;53.458;9.940;2023-04-29T02:54:38;15.23;;;15.13;;
9270;SDS011;4673;53.458;9.940;2023-04-29T02:57:04;14.63;;;14.53;;
9270;SDS011;4673;53.458;9.940;2023-04-29T02:59:30;15.13;;;15.03;;
9270;SDS011;4673;53.458;9.940;2023-04-29T03:01:55;13.57;;;13.47;;
9270;SDS011;4673;53.458;9.940;2023-04-29T03:04:22;14.57;;;14.47;;
9270;SDS011;4673;53.458;9.940;2023-04-29T03:06:47;16.00;;;15.90;;
9270;SDS011;4673;53.458;9.940;2023-04-29T03:09:13;13.17;;;13.07;;
9270;SDS011;4673;53.458;9.940;2023-04-29T03:11:39;15.63;;;15.53;;
9270;SDS011;4673;53.458;9.940;2023-04-29T03:14:05;13.47;;;13.37;;
9270;SDS011;4673;53.458;9.940;2023-04-29T03:16:31;14.57;;;14.47;;
9270;SDS011;4673;53.458;9.940;2023-04-29T03:18:56;15.07;;;14.97;;
9270;SDS011;4673;53.458;9.940;2023-04-29T03:21:22;14.23;;;14.13;;
9270;SDS011;4673;53.458;9.940;2023-04-29T03:23:51;15.43;;;15.33;;
9270;SDS011;4673;53.458;9.940;2023-04-29T03:26:17;14.23;;;14.13;;
9270;SDS011;4673;53.458;9.940;2023-04-29T03:28:42;14.73;;;14.63;;
9270;SDS011;4673;53.458;9.940;2023-04-29T03:31:08;14.63;;;14.53;;
9270;SDS011;4673;53.458;9.940;2023-04-29T03:33:36;14.73;;;14.63;;
9270;SDS011;4673;53.458;9.940;2023-04-29T03:36:01;15.43;;;15.33;;
9270;SDS011;4673;53.458;9.940;2023-04-29T03:38:28;16.17;;;16.07;;
9270;SDS011;4673;53.458;9.940;2023-04-29T03:40:53;16.60;;;16.50;;
9270;SDS011;4673;53.458;9.940;2023-04-29T03:43:19;15.27;;;15.17;;
9270;SDS011;4673;53.458;9.940;2023-04-29T03:45:45;16.20;;;16.10;;
9270;SDS011;4673;53.458;9.940;2023-04-29T03:48:10;16.23;;;16.13;;
9270;SDS011;4673;53.458;9.940;2023-04-29T03:50:36;15.73;;;15.63;;
9270;SDS011;4673;53.458;9.940;2023-04-29T03:53:02;16.83;;;16.73;;
9270;SDS011;4673;53.458;9.940;2023-04-29T03:55:27;16.23;;;16.13;;
9270;SDS011;4673;53.458;9.940;2023-04-29T03:57:53;15.70;;;15.60;;
9270;SDS011;4673;53.458;9.940;2023-04-29T04:00:20;17.77;;;17.67;;
9270;SDS011;4673;53.458;9.940;2023-04-29T04:02:45;16.57;;;16.47;;
9270;SDS011;4673;53.458;9.940;2023-04-29T04:05:11;15.97;;;15.87;;
9270;SDS011;4673;53.458;9.940;2023-04-29T04:07:37;16.63;;;16.53;;
9270;SDS011;4673;53.458;9.940;2023-04-29T04:10:03;15.47;;;15.37;;
9270;SDS011;4673;53.458;9.940;2023-04-29T04:12:28;15.83;;;15.73;;
9270;SDS011;4673;53.458;9.940;2023-04-29T04:14:54;15.20;;;15.10;;
9270;SDS011;4673;53.458;9.940;2023-04-29T04:17:21;15.63;;;15.53;;
9270;SDS011;4673;53.458;9.940;2023-04-29T04:19:46;14.57;;;14.47;;
9270;SDS011;4673;53.458;9.940;2023-04-29T04:22:12;14.30;;;14.20;;
9270;SDS011;4673;53.458;9.940;2023-04-29T04:24:37;14.97;;;14.87;;
9270;SDS011;4673;53.458;9.940;2023-04-29T04:27:03;14.53;;;14.43;;
9270;SDS011;4673;53.458;9.940;2023-04-29T04:29:29;14.83;;;14.73;;
9270;SDS011;4673;53.458;9.940;2023-04-29T04:31:54;13.67;;;13.57;;
9270;SDS011;4673;53.458;9.940;2023-04-29T04:34:20;13.07;;;13.07;;
9270;SDS011;4673;53.458;9.940;2023-04-29T04:36:46;13.77;;;13.67;;
9270;SDS011;4673;53.458;9.940;2023-04-29T04:39:11;13.57;;;13.47;;
9270;SDS011;4673;53.458;9.940;2023-04-29T04:41:37;13.50;;;13.40;;
9270;SDS011;4673;53.458;9.940;2023-04-29T04:44:03;13.73;;;13.63;;
9270;SDS011;4673;53.458;9.940;2023-04-29T04:46:29;14.33;;;14.23;;
9270;SDS011;4673;53.458;9.940;2023-04-29T04:48:54;14.50;;;14.40;;
9270;SDS011;4673;53.458;9.940;2023-04-29T04:51:20;15.43;;;15.33;;
9270;SDS011;4673;53.458;9.940;2023-04-29T04:53:45;15.37;;;15.27;;
9270;SDS011;4673;53.458;9.940;2023-04-29T04:56:11;14.90;;;14.80;;
9270;SDS011;4673;53.458;9.940;2023-04-29T04:58:37;15.80;;;15.70;;
9270;SDS011;4673;53.458;9.940;2023-04-29T05:01:03;16.00;;;15.90;;
9270;SDS011;4673;53.458;9.940;2023-04-29T05:03:29;15.23;;;15.13;;
9270;SDS011;4673;53.458;9.940;2023-04-29T05:05:55;14.83;;;14.73;;
9270;SDS011;4673;53.458;9.940;2023-04-29T05:08:22;16.60;;;16.50;;
9270;SDS011;4673;53.458;9.940;2023-04-29T05:10:48;15.40;;;15.30;;
9270;SDS011;4673;53.458;9.940;2023-04-29T05:13:14;14.33;;;14.23;;
9270;SDS011;4673;53.458;9.940;2023-04-29T05:15:40;14.57;;;14.47;;
9270;SDS011;4673;53.458;9.940;2023-04-29T05:18:06;14.70;;;14.60;;
9270;SDS011;4673;53.458;9.940;2023-04-29T05:20:31;15.60;;;15.50;;
9270;SDS011;4673;53.458;9.940;2023-04-29T05:22:57;16.13;;;16.03;;
9270;SDS011;4673;53.458;9.940;2023-04-29T05:25:22;16.37;;;16.27;;
9270;SDS011;4673;53.458;9.940;2023-04-29T05:27:48;15.23;;;15.13;;
9270;SDS011;4673;53.458;9.940;2023-04-29T05:30:14;17.40;;;17.30;;
9270;SDS011;4673;53.458;9.940;2023-04-29T05:32:40;15.07;;;14.97;;
9270;SDS011;4673;53.458;9.940;2023-04-29T05:35:05;16.07;;;15.97;;
9270;SDS011;4673;53.458;9.940;2023-04-29T05:37:31;16.70;;;16.60;;
9270;SDS011;4673;53.458;9.940;2023-04-29T05:39:57;17.43;;;17.33;;
9270;SDS011;4673;53.458;9.940;2023-04-29T05:42:23;17.43;;;17.33;;
9270;SDS011;4673;53.458;9.940;2023-04-29T05:44:49;17.80;;;17.70;;
9270;SDS011;4673;53.458;9.940;2023-04-29T05:47:15;18.53;;;18.43;;
9270;SDS011;4673;53.458;9.940;2023-04-29T05:49:40;16.13;;;16.03;;
9270;SDS011;4673;53.458;9.940;2023-04-29T05:52:07;15.50;;;15.40;;
9270;SDS011;4673;53.458;9.940;2023-04-29T05:54:32;16.17;;;16.07;;
9270;SDS011;4673;53.458;9.940;2023-04-29T05:56:59;15.87;;;15.77;;
9270;SDS011;4673;53.458;9.940;2023-04-29T05:59:28;15.13;;;15.03;;
9270;SDS011;4673;53.458;9.940;2023-04-29T06:01:55;12.47;;;12.37;;
9270;SDS011;4673;53.458;9.940;2023-04-29T06:04:21;12.50;;;12.50;;
9270;SDS011;4673;53.458;9.940;2023-04-29T06:06:47;11.47;;;11.47;;
9270;SDS011;4673;53.458;9.940;2023-04-29T06:09:13;12.90;;;12.80;;
9270;SDS011;4673;53.458;9.940;2023-04-29T06:11:42;10.93;;;10.90;;
9270;SDS011;4673;53.458;9.940;2023-04-29T06:14:09;9.90;;;9.90;;
9270;SDS011;4673;53.458;9.940;2023-04-29T06:16:35;10.03;;;10.03;;
9270;SDS011;4673;53.458;9.940;2023-04-29T06:19:00;8.93;;;8.93;;
9270;SDS011;4673;53.458;9.940;2023-04-29T06:21:26;9.27;;;9.27;;
9270;SDS011;4673;53.458;9.940;2023-04-29T06:23:52;8.57;;;8.57;;
9270;SDS011;4673;53.458;9.940;2023-04-29T06:26:18;8.30;;;8.30;;
9270;SDS011;4673;53.458;9.940;2023-04-29T06:28:45;8.70;;;8.70;;
9270;SDS011;4673;53.458;9.940;2023-04-29T06:31:11;8.43;;;8.43;;
9270;SDS011;4673;53.458;9.940;2023-04-29T06:33:37;8.43;;;8.43;;
9270;SDS011;4673;53.458;9.940;2023-04-29T06:36:03;8.90;;;8.90;;
9270;SDS011;4673;53.458;9.940;2023-04-29T06:38:29;8.77;;;8.77;;
9270;SDS011;4673;53.458;9.940;2023-04-29T06:40:54;8.20;;;8.20;;
9270;SDS011;4673;53.458;9.940;2023-04-29T06:43:24;9.33;;;9.33;;
9270;SDS011;4673;53.458;9.940;2023-04-29T06:45:56;8.87;;;8.87;;
9270;SDS011;4673;53.458;9.940;2023-04-29T06:48:22;8.47;;;8.47;;
9270;SDS011;4673;53.458;9.940;2023-04-29T06:50:48;9.03;;;9.03;;
9270;SDS011;4673;53.458;9.940;2023-04-29T06:53:15;8.07;;;8.07;;
9270;SDS011;4673;53.458;9.940;2023-04-29T06:55:41;8.07;;;8.07;;
9270;SDS011;4673;53.458;9.940;2023-04-29T06:58:06;8.07;;;8.07;;
9270;SDS011;4673;53.458;9.940;2023-04-29T07:00:32;7.50;;;7.50;;
9270;SDS011;4673;53.458;9.940;2023-04-29T07:02:57;7.17;;;7.17;;
9270;SDS011;4673;53.458;9.940;2023-04-29T07:05:23;7.37;;;7.37;;
9270;SDS011;4673;53.458;9.940;2023-04-29T07:07:49;7.23;;;7.23;;
9270;SDS011;4673;53.458;9.940;2023-04-29T07:10:14;5.83;;;5.83;;
9270;SDS011;4673;53.458;9.940;2023-04-29T07:12:40;6.23;;;6.23;;
9270;SDS011;4673;53.458;9.940;2023-04-29T07:15:06;6.43;;;6.43;;
9270;SDS011;4673;53.458;9.940;2023-04-29T07:17:32;7.23;;;7.13;;
9270;SDS011;4673;53.458;9.940;2023-04-29T07:19:57;6.20;;;6.20;;
9270;SDS011;4673;53.458;9.940;2023-04-29T07:22:23;6.00;;;6.00;;
9270;SDS011;4673;53.458;9.940;2023-04-29T07:24:51;6.23;;;6.23;;
9270;SDS011;4673;53.458;9.940;2023-04-29T07:27:18;6.57;;;6.57;;
9270;SDS011;4673;53.458;9.940;2023-04-29T07:29:44;6.37;;;6.37;;
9270;SDS011;4673;53.458;9.940;2023-04-29T07:32:09;5.90;;;5.90;;
9270;SDS011;4673;53.458;9.940;2023-04-29T07:34:35;6.33;;;6.33;;
9270;SDS011;4673;53.458;9.940;2023-04-29T07:37:02;5.60;;;5.60;;
9270;SDS011;4673;53.458;9.940;2023-04-29T07:39:27;5.73;;;5.73;;
9270;SDS011;4673;53.458;9.940;2023-04-29T07:41:54;5.50;;;5.50;;
9270;SDS011;4673;53.458;9.940;2023-04-29T07:44:20;5.73;;;5.73;;
9270;SDS011;4673;53.458;9.940;2023-04-29T07:46:46;6.20;;;6.20;;
9270;SDS011;4673;53.458;9.940;2023-04-29T07:49:12;5.17;;;5.17;;
9270;SDS011;4673;53.458;9.940;2023-04-29T07:51:40;5.27;;;5.27;;
9270;SDS011;4673;53.458;9.940;2023-04-29T07:54:06;6.20;;;6.20;;
9270;SDS011;4673;53.458;9.940;2023-04-29T07:56:32;6.77;;;6.77;;
9270;SDS011;4673;53.458;9.940;2023-04-29T07:58:58;5.77;;;5.77;;
9270;SDS011;4673;53.458;9.940;2023-04-29T08:01:25;5.90;;;5.90;;
9270;SDS011;4673;53.458;9.940;2023-04-29T08:03:52;7.33;;;7.33;;
9270;SDS011;4673;53.458;9.940;2023-04-29T08:06:18;5.50;;;5.50;;
9270;SDS011;4673;53.458;9.940;2023-04-29T08:08:46;5.33;;;5.33;;
9270;SDS011;4673;53.458;9.940;2023-04-29T08:11:18;5.50;;;5.50;;
9270;SDS011;4673;53.458;9.940;2023-04-29T08:13:45;6.20;;;6.20;;
9270;SDS011;4673;53.458;9.940;2023-04-29T08:16:11;5.90;;;5.90;;
9270;SDS011;4673;53.458;9.940;2023-04-29T08:18:37;5.13;;;5.13;;
9270;SDS011;4673;53.458;9.940;2023-04-29T08:21:03;5.40;;;5.40;;
9270;SDS011;4673;53.458;9.940;2023-04-29T08:23:29;4.77;;;4.77;;
9270;SDS011;4673;53.458;9.940;2023-04-29T08:25:56;5.03;;;5.03;;
9270;SDS011;4673;53.458;9.940;2023-04-29T08:28:22;5.03;;;5.03;;
9270;SDS011;4673;53.458;9.940;2023-04-29T08:30:47;5.43;;;5.43;;
9270;SDS011;4673;53.458;9.940;2023-04-29T08:33:13;5.10;;;5.10;;
9270;SDS011;4673;53.458;9.940;2023-04-29T08:35:40;5.30;;;5.30;;
9270;SDS011;4673;53.458;9.940;2023-04-29T08:38:06;4.50;;;4.50;;
9270;SDS011;4673;53.458;9.940;2023-04-29T08:40:51;4.23;;;4.23;;
9270;SDS011;4673;53.458;9.940;2023-04-29T08:43:16;4.23;;;4.23;;
9270;SDS011;4673;53.458;9.940;2023-04-29T08:45:43;4.37;;;4.37;;
9270;SDS011;4673;53.458;9.940;2023-04-29T08:48:12;5.00;;;5.00;;
9270;SDS011;4673;53.458;9.940;2023-04-29T08:50:40;4.87;;;4.87;;
9270;SDS011;4673;53.458;9.940;2023-04-29T08:53:06;5.20;;;5.20;;
9270;SDS011;4673;53.458;9.940;2023-04-29T08:55:43;5.17;;;5.17;;
9270;SDS011;4673;53.458;9.940;2023-04-29T08:58:11;4.20;;;4.20;;
9270;SDS011;4673;53.458;9.940;2023-04-29T09:00:41;5.07;;;5.07;;
9270;SDS011;4673;53.458;9.940;2023-04-29T09:03:13;5.13;;;5.13;;
9270;SDS011;4673;53.458;9.940;2023-04-29T09:05:59;5.10;;;5.10;;
9270;SDS011;4673;53.458;9.940;2023-04-29T09:08:25;4.97;;;4.97;;
9270;SDS011;4673;53.458;9.940;2023-04-29T09:10:52;4.57;;;4.57;;
9270;SDS011;4673;53.458;9.940;2023-04-29T09:13:24;4.80;;;4.80;;
9270;SDS011;4673;53.458;9.940;2023-04-29T09:15:51;5.17;;;5.17;;
9270;SDS011;4673;53.458;9.940;2023-04-29T09:23:44;5.57;;;5.57;;
9270;SDS011;4673;53.458;9.940;2023-04-29T09:26:11;4.90;;;4.90;;
9270;SDS011;4673;53.458;9.940;2023-04-29T09:28:37;5.27;;;5.27;;
9270;SDS011;4673;53.458;9.940;2023-04-29T09:31:05;5.13;;;5.13;;
9270;SDS011;4673;53.458;9.940;2023-04-29T09:33:47;4.60;;;4.60;;
9270;SDS011;4673;53.458;9.940;2023-04-29T09:36:25;4.97;;;4.97;;
9270;SDS011;4673;53.458;9.940;2023-04-29T09:39:24;4.40;;;4.40;;
9270;SDS011;4673;53.458;9.940;2023-04-29T09:44:18;5.53;;;5.53;;
9270;SDS011;4673;53.458;9.940;2023-04-29T09:49:25;5.40;;;5.40;;
9270;SDS011;4673;53.458;9.940;2023-04-29T09:51:53;5.53;;;5.53;;
9270;SDS011;4673;53.458;9.940;2023-04-29T09:54:24;5.17;;;5.17;;
9270;SDS011;4673;53.458;9.940;2023-04-29T09:56:52;4.90;;;4.90;;
9270;SDS011;4673;53.458;9.940;2023-04-29T09:59:19;4.97;;;4.97;;
9270;SDS011;4673;53.458;9.940;2023-04-29T10:01:50;5.17;;;5.17;;
9270;SDS011;4673;53.458;9.940;2023-04-29T10:04:17;4.17;;;4.17;;
9270;SDS011;4673;53.458;9.940;2023-04-29T10:06:45;4.33;;;4.33;;
9270;SDS011;4673;53.458;9.940;2023-04-29T10:09:13;4.73;;;4.73;;
9270;SDS011;4673;53.458;9.940;2023-04-29T10:11:40;4.17;;;4.17;;
9270;SDS011;4673;53.458;9.940;2023-04-29T10:14:26;4.10;;;4.10;;
9270;SDS011;4673;53.458;9.940;2023-04-29T10:17:00;4.30;;;4.30;;
9270;SDS011;4673;53.458;9.940;2023-04-29T10:22:09;4.27;;;4.27;;
9270;SDS011;4673;53.458;9.940;2023-04-29T10:24:40;4.13;;;4.13;;
9270;SDS011;4673;53.458;9.940;2023-04-29T10:27:07;4.13;;;4.13;;
9270;SDS011;4673;53.458;9.940;2023-04-29T10:29:36;4.80;;;4.80;;
9270;SDS011;4673;53.458;9.940;2023-04-29T10:32:06;4.03;;;4.03;;
9270;SDS011;4673;53.458;9.940;2023-04-29T10:34:36;4.10;;;4.10;;
9270;SDS011;4673;53.458;9.940;2023-04-29T10:37:07;4.50;;;4.50;;
9270;SDS011;4673;53.458;9.940;2023-04-29T10:39:35;4.37;;;4.37;;
9270;SDS011;4673;53.458;9.940;2023-04-29T10:42:15;4.43;;;4.43;;
9270;SDS011;4673;53.458;9.940;2023-04-29T10:50:29;4.80;;;4.80;;
9270;SDS011;4673;53.458;9.940;2023-04-29T10:52:55;4.37;;;4.37;;
9270;SDS011;4673;53.458;9.940;2023-04-29T10:55:24;4.83;;;4.83;;
9270;SDS011;4673;53.458;9.940;2023-04-29T10:57:53;5.13;;;5.13;;
9270;SDS011;4673;53.458;9.940;2023-04-29T11:00:26;5.13;;;5.13;;
9270;SDS011;4673;53.458;9.940;2023-04-29T11:02:57;5.27;;;5.27;;
9270;SDS011;4673;53.458;9.940;2023-04-29T11:05:31;4.50;;;4.50;;
9270;SDS011;4673;53.458;9.940;2023-04-29T11:08:13;5.30;;;5.30;;
9270;SDS011;4673;53.458;9.940;2023-04-29T11:10:51;4.97;;;4.97;;
9270;SDS011;4673;53.458;9.940;2023-04-29T11:13:23;4.50;;;4.50;;
9270;SDS011;4673;53.458;9.940;2023-04-29T11:18:29;5.30;;;5.30;;
9270;SDS011;4673;53.458;9.940;2023-04-29T11:23:33;4.97;;;4.97;;
9270;SDS011;4673;53.458;9.940;2023-04-29T11:26:02;5.70;;;5.70;;
9270;SDS011;4673;53.458;9.940;2023-04-29T11:28:29;4.93;;;4.93;;
9270;SDS011;4673;53.458;9.940;2023-04-29T11:30:56;5.85;;;5.85;;
9270;SDS011;4673;53.458;9.940;2023-04-29T11:33:22;5.43;;;5.43;;
9270;SDS011;4673;53.458;9.940;2023-04-29T11:35:49;5.28;;;5.28;;
9270;SDS011;4673;53.458;9.940;2023-04-29T11:38:15;5.53;;;5.53;;
9270;SDS011;4673;53.458;9.940;2023-04-29T11:40:41;5.53;;;5.53;;
9270;SDS011;4673;53.458;9.940;2023-04-29T11:43:16;5.95;;;5.95;;
9270;SDS011;4673;53.458;9.940;2023-04-29T11:45:46;5.95;;;5.95;;
9270;SDS011;4673;53.458;9.940;2023-04-29T11:48:21;5.43;;;5.43;;
9270;SDS011;4673;53.458;9.940;2023-04-29T11:50:49;5.65;;;5.65;;
9270;SDS011;4673;53.458;9.940;2023-04-29T11:53:21;5.47;;;5.47;;
9270;SDS011;4673;53.458;9.940;2023-04-29T11:55:49;5.47;;;5.47;;
9270;SDS011;4673;53.458;9.940;2023-04-29T11:58:20;5.32;;;5.32;;
9270;SDS011;4673;53.458;9.940;2023-04-29T12:00:47;5.47;;;5.47;;
9270;SDS011;4673;53.458;9.940;2023-04-29T12:03:14;4.95;;;4.95;;
9270;SDS011;4673;53.458;9.940;2023-04-29T12:05:54;5.72;;;5.72;;
9270;SDS011;4673;53.458;9.940;2023-04-29T12:08:21;5.32;;;5.32;;
9270;SDS011;4673;53.458;9.940;2023-04-29T12:10:54;5.65;;;5.65;;
9270;SDS011;4673;53.458;9.940;2023-04-29T12:13:21;4.88;;;4.88;;
9270;SDS011;4673;53.458;9.940;2023-04-29T12:15:49;5.43;;;5.43;;
9270;SDS011;4673;53.458;9.940;2023-04-29T12:18:16;4.70;;;4.70;;
9270;SDS011;4673;53.458;9.940;2023-04-29T12:20:43;5.25;;;5.25;;
9270;SDS011;4673;53.458;9.940;2023-04-29T12:23:17;5.78;;;5.78;;
9270;SDS011;4673;53.458;9.940;2023-04-29T12:25:48;5.63;;;5.63;;
9270;SDS011;4673;53.458;9.940;2023-04-29T12:28:24;5.60;;;5.60;;
9270;SDS011;4673;53.458;9.940;2023-04-29T12:30:51;5.32;;;5.32;;
9270;SDS011;4673;53.458;9.940;2023-04-29T12:33:22;5.13;;;5.13;;
9270;SDS011;4673;53.458;9.940;2023-04-29T12:35:55;4.00;;;4.00;;
9270;SDS011;4673;53.458;9.940;2023-04-29T12:38:26;3.90;;;3.90;;
9270;SDS011;4673;53.458;9.940;2023-04-29T12:41:00;4.20;;;4.20;;
9270;SDS011;4673;53.458;9.940;2023-04-29T12:43:28;4.00;;;4.00;;
9270;SDS011;4673;53.458;9.940;2023-04-29T12:46:05;3.47;;;3.47;;
9270;SDS011;4673;53.458;9.940;2023-04-29T12:48:36;3.97;;;3.97;;
9270;SDS011;4673;53.458;9.940;2023-04-29T12:51:07;3.30;;;3.30;;
9270;SDS011;4673;53.458;9.940;2023-04-29T12:53:36;3.65;;;3.65;;
9270;SDS011;4673;53.458;9.940;2023-04-29T12:56:02;3.22;;;3.22;;
9270;SDS011;4673;53.458;9.940;2023-04-29T12:58:31;2.90;;;2.90;;
9270;SDS011;4673;53.458;9.940;2023-04-29T13:00:58;3.10;;;3.10;;
9270;SDS011;4673;53.458;9.940;2023-04-29T13:03:24;3.50;;;3.50;;
9270;SDS011;4673;53.458;9.940;2023-04-29T13:05:50;3.45;;;3.45;;
9270;SDS011;4673;53.458;9.940;2023-04-29T13:08:18;3.55;;;3.55;;
9270;SDS011;4673;53.458;9.940;2023-04-29T13:10:45;4.22;;;4.22;;
9270;SDS011;4673;53.458;9.940;2023-04-29T13:13:10;4.00;;;4.00;;
9270;SDS011;4673;53.458;9.940;2023-04-29T13:15:36;4.22;;;4.22;;
9270;SDS011;4673;53.458;9.940;2023-04-29T13:18:05;3.73;;;3.73;;
9270;SDS011;4673;53.458;9.940;2023-04-29T13:20:31;3.95;;;3.95;;
9270;SDS011;4673;53.458;9.940;2023-04-29T13:22:57;3.70;;;3.70;;
9270;SDS011;4673;53.458;9.940;2023-04-29T13:25:23;3.47;;;3.47;;
9270;SDS011;4673;53.458;9.940;2023-04-29T13:27:49;3.90;;;3.90;;
9270;SDS011;4673;53.458;9.940;2023-04-29T13:30:14;3.67;;;3.67;;
9270;SDS011;4673;53.458;9.940;2023-04-29T13:32:40;3.67;;;3.67;;
9270;SDS011;4673;53.458;9.940;2023-04-29T13:35:09;2.97;;;2.97;;
9270;SDS011;4673;53.458;9.940;2023-04-29T13:37:35;3.00;;;3.00;;
9270;SDS011;4673;53.458;9.940;2023-04-29T13:40:00;3.27;;;3.27;;
9270;SDS011;4673;53.458;9.940;2023-04-29T13:42:26;3.20;;;3.20;;
9270;SDS011;4673;53.458;9.940;2023-04-29T13:44:51;2.77;;;2.77;;
9270;SDS011;4673;53.458;9.940;2023-04-29T13:47:21;2.30;;;2.30;;
9270;SDS011;4673;53.458;9.940;2023-04-29T13:49:47;2.40;;;2.40;;
9270;SDS011;4673;53.458;9.940;2023-04-29T13:52:13;2.20;;;2.20;;
9270;SDS011;4673;53.458;9.940;2023-04-29T13:54:38;2.17;;;2.17;;
9270;SDS011;4673;53.458;9.940;2023-04-29T13:57:04;2.37;;;2.37;;
9270;SDS011;4673;53.458;9.940;2023-04-29T13:59:30;2.33;;;2.33;;
9270;SDS011;4673;53.458;9.940;2023-04-29T14:01:57;1.70;;;1.70;;
9270;SDS011;4673;53.458;9.940;2023-04-29T14:04:27;1.67;;;1.67;;
9270;SDS011;4673;53.458;9.940;2023-04-29T14:06:53;2.07;;;2.07;;
9270;SDS011;4673;53.458;9.940;2023-04-29T14:09:22;1.60;;;1.60;;
9270;SDS011;4673;53.458;9.940;2023-04-29T14:11:57;2.33;;;2.33;;
9270;SDS011;4673;53.458;9.940;2023-04-29T14:14:23;1.87;;;1.87;;
9270;SDS011;4673;53.458;9.940;2023-04-29T14:16:49;2.30;;;2.30;;
9270;SDS011;4673;53.458;9.940;2023-04-29T14:20:11;2.40;;;2.40;;
9270;SDS011;4673;53.458;9.940;2023-04-29T14:22:42;3.37;;;3.37;;
9270;SDS011;4673;53.458;9.940;2023-04-29T14:25:18;2.67;;;2.67;;
9270;SDS011;4673;53.458;9.940;2023-04-29T14:27:50;2.40;;;2.40;;
9270;SDS011;4673;53.458;9.940;2023-04-29T14:30:37;2.40;;;2.40;;
9270;SDS011;4673;53.458;9.940;2023-04-29T14:33:06;2.30;;;2.30;;
9270;SDS011;4673;53.458;9.940;2023-04-29T14:35:34;2.57;;;2.57;;
9270;SDS011;4673;53.458;9.940;2023-04-29T14:38:03;2.40;;;2.40;;
9270;SDS011;4673;53.458;9.940;2023-04-29T14:40:34;2.43;;;2.43;;
9270;SDS011;4673;53.458;9.940;2023-04-29T14:43:00;2.33;;;2.33;;
9270;SDS011;4673;53.458;9.940;2023-04-29T14:45:30;2.57;;;2.57;;
9270;SDS011;4673;53.458;9.940;2023-04-29T14:47:56;2.30;;;2.30;;
9270;SDS011;4673;53.458;9.940;2023-04-29T14:50:25;2.50;;;2.50;;
9270;SDS011;4673;53.458;9.940;2023-04-29T14:53:00;2.50;;;2.50;;
9270;SDS011;4673;53.458;9.940;2023-04-29T14:55:45;2.20;;;2.20;;
9270;SDS011;4673;53.458;9.940;2023-04-29T15:01:01;1.97;;;1.97;;
9270;SDS011;4673;53.458;9.940;2023-04-29T15:03:36;1.60;;;1.60;;
9270;SDS011;4673;53.458;9.940;2023-04-29T15:06:22;2.60;;;2.60;;
9270;SDS011;4673;53.458;9.940;2023-04-29T15:08:55;1.50;;;1.50;;
9270;SDS011;4673;53.458;9.940;2023-04-29T15:11:30;1.20;;;1.20;;
9270;SDS011;4673;53.458;9.940;2023-04-29T15:13:57;1.57;;;1.57;;
9270;SDS011;4673;53.458;9.940;2023-04-29T15:16:29;1.43;;;1.43;;
9270;SDS011;4673;53.458;9.940;2023-04-29T15:19:01;1.30;;;1.30;;
9270;SDS011;4673;53.458;9.940;2023-04-29T15:24:32;1.70;;;1.70;;
9270;SDS011;4673;53.458;9.940;2023-04-29T15:29:59;1.73;;;1.73;;
9270;SDS011;4673;53.458;9.940;2023-04-29T15:32:38;1.80;;;1.80;;
9270;SDS011;4673;53.458;9.940;2023-04-29T15:35:06;1.63;;;1.63;;
9270;SDS011;4673;53.458;9.940;2023-04-29T15:37:32;1.43;;;1.43;;
9270;SDS011;4673;53.458;9.940;2023-04-29T15:39:58;1.53;;;1.53;;
9270;SDS011;4673;53.458;9.940;2023-04-29T15:42:24;1.50;;;1.50;;
9270;SDS011;4673;53.458;9.940;2023-04-29T15:44:50;1.40;;;1.40;;
9270;SDS011;4673;53.458;9.940;2023-04-29T15:47:16;1.70;;;1.70;;
9270;SDS011;4673;53.458;9.940;2023-04-29T15:49:42;2.17;;;2.17;;
9270;SDS011;4673;53.458;9.940;2023-04-29T15:52:08;2.07;;;2.07;;
9270;SDS011;4673;53.458;9.940;2023-04-29T15:54:34;1.97;;;1.97;;